Time;durP1;ratioP1;P1;durP2;ratioP2;P2;SDS_P1;SDS_P2;PMS_P1;PMS_P2;Temp;Humidity;BMP_temperature;BMP_pressure;BME280_temperature;BME280_humidity;BME280_pressure;Samples;Min_cycle;Max_cycle;Signal;HPM_P1;HPM_P2
2021/05/05 00:01:54;;;;;;;11.03;3.77;;;;;;;4.71;64.72;99085.27;1753202;81;21003;-76
2021/05/05 00:04:23;;;;;;;7.75;4.03;;;;;;;4.74;64.77;99082.52;1753049;81;21045;-75
2021/05/05 00:06:54;;;;;;;11.10;4.60;;;;;;;4.76;64.85;99072.17;1750281;82;21344;-78
2021/05/05 00:09:21;;;;;;;12.10;4.60;;;;;;;4.76;64.85;99072.17;1750346;82;20996;-77
2021/05/05 00:11:49;;;;;;;11.35;3.80;;;;;;;4.77;65.01;99073.79;1750292;81;21040;-76
2021/05/05 00:14:18;;;;;;;10.13;4.60;;;;;;;4.62;65.89;99071.49;1750232;81;21000;-79
2021/05/05 00:16:47;;;;;;;8.33;4.15;;;;;;;4.62;65.89;99071.49;1750387;80;21277;-78
2021/05/05 00:19:15;;;;;;;13.08;5.62;;;;;;;4.51;65.55;99061.85;1750334;82;21383;-75
2021/05/05 00:21:43;;;;;;;9.43;4.67;;;;;;;4.51;65.55;99061.85;1750046;81;21083;-78
2021/05/05 00:24:12;;;;;;;11.08;4.67;;;;;;;4.55;65.20;99072.41;1750423;81;20930;-76
2021/05/05 00:26:40;;;;;;;11.33;4.78;;;;;;;4.59;64.75;99065.30;1750439;82;20992;-76
2021/05/05 00:29:09;;;;;;;10.45;4.97;;;;;;;4.64;64.40;99069.84;1750182;82;20998;-77
2021/05/05 00:31:36;;;;;;;22.98;5.97;;;;;;;4.70;64.32;99065.17;1750289;82;21401;-76
2021/05/05 00:34:04;;;;;;;17.77;6.45;;;;;;;4.76;63.42;99065.38;1750202;81;20937;-77
2021/05/05 00:36:32;;;;;;;18.77;7.05;;;;;;;4.84;63.12;99069.63;1750358;82;21576;-78
2021/05/05 00:39:01;;;;;;;17.27;6.10;;;;;;;4.91;62.92;99064.65;1750321;82;21005;-71
2021/05/05 00:41:29;;;;;;;10.68;4.67;;;;;;;4.95;62.83;99067.05;1750410;82;21114;-75
2021/05/05 00:43:57;;;;;;;8.83;4.42;;;;;;;4.98;62.71;99064.30;1750413;82;22312;-79
2021/05/05 00:46:25;;;;;;;10.90;4.90;;;;;;;4.98;62.53;99061.58;1750347;81;21500;-78
2021/05/05 00:48:54;;;;;;;11.10;4.90;;;;;;;4.99;62.47;99059.12;1750394;82;20980;-77
2021/05/05 00:51:22;;;;;;;8.10;4.05;;;;;;;4.99;62.64;99057.76;1779860;80;21607;-78
2021/05/05 00:53:49;;;;;;;9.33;4.75;;;;;;;4.94;62.54;99052.38;1781182;80;21194;-76
2021/05/05 00:56:17;;;;;;;10.95;4.95;;;;;;;4.94;62.54;99052.38;1781417;80;22059;-78
2021/05/05 00:58:46;;;;;;;12.00;4.67;;;;;;;4.92;62.72;99053.22;1781071;80;20943;-77
2021/05/05 01:01:14;;;;;;;12.68;4.62;;;;;;;4.89;63.03;99052.44;1781200;80;21038;-77
2021/05/05 01:03:42;;;;;;;11.78;5.97;;;;;;;4.84;63.04;99044.34;1781214;80;20943;-81
2021/05/05 01:06:10;;;;;;;11.18;5.55;;;;;;;4.84;63.09;99046.51;1750962;80;20986;-82
2021/05/05 01:08:38;;;;;;;10.13;4.78;;;;;;;4.84;63.21;99043.79;1781468;80;21097;-82
2021/05/05 01:11:06;;;;;;;10.70;5.17;;;;;;;4.81;63.31;99036.21;1781209;80;20990;-81
2021/05/05 01:13:34;;;;;;;11.08;6.17;;;;;;;4.82;63.06;99043.27;1781110;80;20946;-82
2021/05/05 01:16:03;;;;;;;16.67;5.67;;;;;;;4.82;63.06;99043.27;1781192;79;21135;-78
2021/05/05 01:18:33;;;;;;;12.65;5.92;;;;;;;4.81;63.31;99038.93;1781077;80;21209;-81
2021/05/05 01:21:01;;;;;;;12.18;5.47;;;;;;;4.80;63.38;99044.11;1750513;80;21230;-69
2021/05/05 01:23:28;;;;;;;17.90;6.90;;;;;;;4.81;63.48;99040.84;1781225;80;20994;-79
2021/05/05 01:25:57;;;;;;;18.62;6.30;;;;;;;4.79;63.51;99046.56;1781166;80;21037;-77
2021/05/05 01:28:25;;;;;;;14.07;5.95;;;;;;;4.79;63.51;99046.56;1781101;80;21002;-79
2021/05/05 01:30:55;;;;;;;14.23;6.53;;;;;;;4.83;63.45;99046.25;1781259;80;20927;-75
2021/05/05 01:33:23;;;;;;;11.95;5.17;;;;;;;4.84;63.40;99044.34;1781267;80;21510;-77
2021/05/05 01:35:50;;;;;;;10.65;5.10;;;;;;;4.85;63.31;99037.80;1780969;80;20970;-74
2021/05/05 01:38:18;;;;;;;10.72;5.20;;;;;;;4.89;63.27;99042.37;1781188;80;21588;-74
2021/05/05 01:40:49;;;;;;;12.28;4.80;;;;;;;4.97;62.97;99038.20;1781201;80;21033;-75
2021/05/05 01:43:17;;;;;;;8.68;4.78;;;;;;;4.97;62.97;99038.20;1781143;80;21045;-75
2021/05/05 01:45:45;;;;;;;12.18;4.37;;;;;;;5.04;62.84;99036.48;1781295;80;22363;-80
2021/05/05 01:48:15;;;;;;;11.50;4.95;;;;;;;5.10;62.88;99036.68;1781154;80;20950;-81
2021/05/05 01:50:42;;;;;;;11.28;4.80;;;;;;;5.12;62.46;99031.20;1781094;80;20903;-79
2021/05/05 01:53:10;;;;;;;7.47;3.85;;;;;;;5.24;62.24;99030.75;1781223;79;21676;-79
2021/05/05 01:55:38;;;;;;;6.85;3.72;;;;;;;5.24;62.24;99030.75;1781198;80;21057;-78
2021/05/05 01:58:09;;;;;;;8.68;4.03;;;;;;;5.29;62.15;99031.48;1781240;80;21006;-78
2021/05/05 02:00:38;;;;;;;7.20;4.50;;;;;;;5.31;62.06;99030.64;1781220;80;20998;-79
2021/05/05 02:03:08;;;;;;;7.62;4.33;;;;;;;5.30;62.03;99023.58;1781279;80;21017;-78
2021/05/05 02:05:46;;;;;;;12.50;6.97;;;;;;;5.31;62.12;99021.12;1889689;76;22718;-80
2021/05/05 02:08:28;;;;;;;12.50;6.30;;;;;;;5.27;62.36;99015.19;1860109;77;20923;-78
2021/05/05 02:10:56;;;;;;;14.95;6.40;;;;;;;5.19;62.55;99011.25;1860883;77;21182;-79
2021/05/05 02:13:24;;;;;;;12.43;5.75;;;;;;;5.19;62.55;99011.25;1860630;77;20987;-78
2021/05/05 02:15:54;;;;;;;12.68;5.58;;;;;;;5.16;63.05;99007.75;1851487;77;20908;-77
2021/05/05 02:18:23;;;;;;;13.18;6.28;;;;;;;5.10;63.21;99011.64;1826944;78;21006;-83
2021/05/05 02:20:53;;;;;;;12.40;5.40;;;;;;;4.98;63.71;99003.09;1826938;78;20955;-84
2021/05/05 02:23:21;;;;;;;10.58;5.10;;;;;;;4.98;63.71;99003.09;1827045;78;21382;-84
2021/05/05 02:25:50;;;;;;;9.88;5.45;;;;;;;4.92;64.07;98994.19;1826950;78;21588;-84
2021/05/05 02:28:18;;;;;;;6.87;4.15;;;;;;;4.74;64.63;98981.37;1826851;78;20987;-84
2021/05/05 02:31:00;;;;;;;11.28;4.62;;;;;;;4.74;64.63;98981.37;1824130;78;21616;-67
2021/05/05 02:33:29;;;;;;;9.20;3.95;;;;;;;4.67;65.02;98980.91;1826920;78;21149;-73
2021/05/05 02:35:57;;;;;;;10.95;4.70;;;;;;;4.62;65.41;98979.06;1826899;78;21636;-75
2021/05/05 02:38:25;;;;;;;9.38;4.20;;;;;;;4.58;65.60;98986.76;1826935;78;20947;-76
2021/05/05 02:40:53;;;;;;;8.25;4.35;;;;;;;4.55;65.82;98984.06;1794846;78;21553;-71
2021/05/05 02:43:21;;;;;;;8.20;3.70;;;;;;;4.53;66.10;98978.11;1826954;78;21665;-76
2021/05/05 02:45:49;;;;;;;9.90;4.87;;;;;;;4.54;66.42;98976.20;1826981;78;21042;-80
2021/05/05 02:48:17;;;;;;;10.55;4.35;;;;;;;4.54;66.42;98976.20;1826990;78;21925;-76
2021/05/05 02:50:45;;;;;;;9.40;4.78;;;;;;;4.54;66.43;98977.01;1826857;78;20937;-79
2021/05/05 02:53:13;;;;;;;9.70;4.30;;;;;;;4.56;66.60;98974.81;1827026;78;20946;-78
2021/05/05 02:55:41;;;;;;;9.40;4.92;;;;;;;4.57;66.66;98973.72;1826749;78;21551;-77
2021/05/05 02:58:09;;;;;;;5.75;4.17;;;;;;;4.62;66.96;98971.48;1826859;78;21103;-75
2021/05/05 03:00:37;;;;;;;7.75;4.53;;;;;;;4.63;66.90;98967.64;1826975;78;21464;-76
2021/05/05 03:03:04;;;;;;;7.28;4.03;;;;;;;4.63;66.90;98967.64;1826859;78;21492;-71
2021/05/05 03:05:32;;;;;;;12.68;4.40;;;;;;;4.71;67.10;98961.55;1825226;78;20986;-78
2021/05/05 03:08:01;;;;;;;8.50;4.40;;;;;;;4.76;67.08;98960.68;1825107;78;21017;-81
2021/05/05 03:10:29;;;;;;;11.60;3.75;;;;;;;4.76;67.08;98960.68;1825259;78;20965;-81
2021/05/05 03:12:58;;;;;;;11.75;4.90;;;;;;;4.85;67.38;98956.21;1811029;78;21492;-77
2021/05/05 03:15:25;;;;;;;7.08;4.65;;;;;;;4.98;67.20;98953.58;1794562;79;20926;-79
2021/05/05 03:17:54;;;;;;;10.80;4.53;;;;;;;4.98;67.20;98953.58;1739005;81;21082;-77
2021/05/05 03:20:22;;;;;;;7.60;4.87;;;;;;;5.11;67.19;98952.04;1726168;83;21141;-76
2021/05/05 03:22:49;;;;;;;10.08;4.80;;;;;;;5.37;66.58;98955.72;1738936;82;21016;-78
2021/05/05 03:25:17;;;;;;;7.00;4.62;;;;;;;5.37;66.58;98955.72;1727518;81;21424;-80
2021/05/05 03:27:45;;;;;;;7.08;4.12;;;;;;;5.49;66.56;98959.61;1739548;82;20949;-79
2021/05/05 03:30:15;;;;;;;9.28;4.92;;;;;;;5.60;66.48;98956.17;1744274;80;21136;-78
2021/05/05 03:32:42;;;;;;;9.85;5.08;;;;;;;5.81;66.04;98958.78;1739247;82;21184;-81
2021/05/05 03:35:13;;;;;;;7.47;4.42;;;;;;;5.81;66.04;98958.78;1739230;82;20934;-77
2021/05/05 03:37:41;;;;;;;7.33;4.50;;;;;;;5.98;66.25;98954.72;1739315;82;22470;-79
2021/05/05 03:40:10;;;;;;;7.60;4.83;;;;;;;6.10;65.99;98959.94;1739313;82;21504;-76
2021/05/05 03:42:37;;;;;;;8.93;4.50;;;;;;;6.24;65.74;98959.41;1739315;81;20954;-82
2021/05/05 03:45:07;;;;;;;9.60;4.58;;;;;;;6.39;65.49;98956.11;1740866;81;20930;-76
2021/05/05 03:47:36;;;;;;;9.95;5.12;;;;;;;6.54;65.41;98953.09;1750430;80;21116;-78
2021/05/05 03:50:08;;;;;;;5.97;3.83;;;;;;;6.71;64.89;98956.57;1742452;81;21397;-77
2021/05/05 03:52:35;;;;;;;11.15;4.20;;;;;;;6.85;64.40;98946.45;1768706;81;20945;-78
2021/05/05 03:55:06;;;;;;;6.95;3.83;;;;;;;7.00;64.10;98945.28;1768528;81;20905;-82
2021/05/05 03:57:33;;;;;;;9.20;3.87;;;;;;;7.16;63.84;98952.83;1768703;81;21607;-76
2021/05/05 04:00:05;;;;;;;7.37;3.52;;;;;;;7.34;63.57;98949.69;1747410;81;21120;-76
2021/05/05 04:02:34;;;;;;;;;;;;;;;7.49;63.50;98947.16;1742081;82;21652;-80
2021/05/05 04:05:04;;;;;;;9.58;4.00;;;;;;;7.68;62.55;98939.56;1750163;80;20240;-75
2021/05/05 04:07:32;;;;;;;7.30;3.42;;;;;;;7.84;62.74;98942.72;1764097;81;21126;-81
2021/05/05 04:09:59;;;;;;;6.37;3.20;;;;;;;8.02;62.05;98936.80;1765158;81;21142;-79
2021/05/05 04:12:29;;;;;;;9.00;3.72;;;;;;;8.18;61.32;98942.08;1764210;80;21067;-75
2021/05/05 04:15:17;;;;;;;6.28;3.62;;;;;;;8.37;61.16;98945.98;1734992;82;21415;-78
2021/05/05 04:18:04;;;;;;;6.87;3.20;;;;;;;8.55;61.26;98942.19;1759609;80;21015;-79
2021/05/05 04:20:49;;;;;;;6.58;3.47;;;;;;;8.72;60.78;98940.04;1765442;81;20964;-79
2021/05/05 04:23:35;;;;;;;7.10;2.80;;;;;;;8.86;60.78;98931.14;1764186;81;21634;-73
2021/05/05 04:26:20;;;;;;;5.95;3.20;;;;;;;9.03;59.75;98921.59;1763835;81;21614;-75
2021/05/05 04:28:48;;;;;;;6.85;3.08;;;;;;;9.15;59.18;98916.29;1764856;81;21402;-74
2021/05/05 04:31:16;;;;;;;5.50;3.52;;;;;;;9.23;59.12;98920.16;1765275;81;20953;-74
2021/05/05 04:33:45;;;;;;;6.95;4.37;;;;;;;9.27;58.85;98918.36;1764910;81;21055;-74
2021/05/05 04:36:14;;;;;;;7.87;4.53;;;;;;;9.27;58.70;98914.25;1765420;81;20961;-77
2021/05/05 04:38:42;;;;;;;8.68;3.95;;;;;;;9.24;59.04;98912.95;1764171;80;20984;-72
2021/05/05 04:41:11;;;;;;;7.05;4.00;;;;;;;9.23;59.32;98914.68;1764519;81;21353;-73
2021/05/05 04:43:40;;;;;;;9.00;3.30;;;;;;;9.21;59.77;98916.38;1735687;81;21155;-72
2021/05/05 04:46:08;;;;;;;5.25;3.20;;;;;;;9.21;60.23;98908.16;1765685;81;20953;-75
2021/05/05 04:48:36;;;;;;;6.33;3.40;;;;;;;9.23;60.58;98901.80;1765577;81;21025;-76
2021/05/05 04:51:06;;;;;;;6.10;3.33;;;;;;;9.28;60.82;98904.34;1765948;81;21059;-76
2021/05/05 04:53:34;;;;;;;3.83;3.20;;;;;;;9.34;60.41;98897.33;1765763;81;22297;-74
2021/05/05 04:56:02;;;;;;;8.30;3.60;;;;;;;9.39;60.55;98902.08;1765623;81;21143;-73
2021/05/05 04:58:30;;;;;;;5.78;3.65;;;;;;;9.45;60.57;98899.42;1765719;81;21009;-74
2021/05/05 05:00:58;;;;;;;5.72;3.47;;;;;;;9.52;61.05;98899.73;1736051;81;21036;-74
2021/05/05 05:03:25;;;;;;;5.00;3.50;;;;;;;9.63;61.16;98893.92;1765631;81;21052;-75
2021/05/05 05:05:53;;;;;;;11.53;3.15;;;;;;;9.74;60.97;98888.34;1765618;81;21819;-78
2021/05/05 05:08:21;;;;;;;8.23;3.47;;;;;;;9.84;60.96;98889.33;1765510;80;21158;-73
2021/05/05 05:10:48;;;;;;;8.20;3.02;;;;;;;9.95;61.34;98886.48;1765233;81;21036;-74
2021/05/05 05:13:16;;;;;;;5.58;3.37;;;;;;;10.07;61.54;98892.66;1765092;81;21004;-73
2021/05/05 05:15:44;;;;;;;4.60;3.40;;;;;;;10.20;61.74;98891.67;1764995;79;21174;-73
2021/05/05 05:18:11;;;;;;;6.75;3.25;;;;;;;10.32;61.91;98880.81;1765116;81;21189;-74
2021/05/05 05:20:39;;;;;;;5.33;3.58;;;;;;;10.45;61.68;98882.49;1765326;81;21679;-73
2021/05/05 05:23:07;;;;;;;8.15;4.33;;;;;;;10.56;61.78;98878.81;1764254;81;21003;-75
2021/05/05 05:25:35;;;;;;;5.28;3.72;;;;;;;10.62;62.03;98878.05;1764028;81;21170;-75
2021/05/05 05:28:03;;;;;;;8.28;3.65;;;;;;;10.70;62.14;98870.33;1764085;80;21709;-75
2021/05/05 05:30:32;;;;;;;8.53;3.75;;;;;;;10.78;61.96;98874.96;1763982;81;21087;-75
2021/05/05 05:33:00;;;;;;;8.35;4.08;;;;;;;10.85;62.13;98873.30;1764251;81;21182;-73
2021/05/05 05:35:28;;;;;;;10.50;4.65;;;;;;;10.94;62.41;98869.12;1764907;81;21111;-73
2021/05/05 05:37:56;;;;;;;6.55;4.65;;;;;;;11.01;62.47;98866.61;1764901;81;21479;-73
2021/05/05 05:40:24;;;;;;;10.95;4.00;;;;;;;11.07;62.53;98859.78;1765418;81;21201;-73
2021/05/05 05:42:51;;;;;;;10.13;4.28;;;;;;;11.13;62.80;98855.70;1765677;81;21874;-73
2021/05/05 05:45:19;;;;;;;10.43;4.22;;;;;;;11.21;62.97;98856.19;1765589;81;21035;-74
2021/05/05 05:47:46;;;;;;;12.63;3.90;;;;;;;11.27;62.91;98855.98;1765658;80;21095;-73
2021/05/05 05:50:15;;;;;;;7.90;4.65;;;;;;;11.32;62.83;98850.28;1764056;80;20922;-74
2021/05/05 05:52:42;;;;;;;12.53;4.53;;;;;;;11.38;63.59;98860.73;1764105;81;21587;-74
2021/05/05 05:55:12;;;;;;;9.70;5.03;;;;;;;11.43;64.06;98852.28;1764629;80;22374;-74
2021/05/05 05:57:40;;;;;;;8.65;4.33;;;;;;;11.54;63.40;98847.16;1765616;80;21064;-75
2021/05/05 06:00:09;;;;;;;9.28;4.35;;;;;;;11.58;63.14;98844.75;1764766;80;21091;-74
2021/05/05 06:02:38;;;;;;;7.53;4.75;;;;;;;11.59;63.61;98844.98;1764144;80;20937;-75
2021/05/05 06:05:07;;;;;;;6.33;4.35;;;;;;;11.68;63.54;98846.27;1765857;81;21114;-73
2021/05/05 06:07:34;;;;;;;9.50;4.20;;;;;;;11.77;63.89;98842.08;1769173;80;21803;-73
2021/05/05 06:10:02;;;;;;;6.10;3.92;;;;;;;11.87;63.78;98843.81;1769207;81;21125;-73
2021/05/05 06:12:31;;;;;;;8.13;4.87;;;;;;;11.97;63.69;98843.15;1769203;81;21554;-73
2021/05/05 06:14:59;;;;;;;7.53;4.10;;;;;;;12.06;63.69;98846.59;1769238;81;21070;-74
2021/05/05 06:17:27;;;;;;;7.75;4.47;;;;;;;12.10;62.90;98850.27;1738631;81;21095;-75
2021/05/05 06:19:54;;;;;;;9.73;4.70;;;;;;;12.07;63.26;98849.01;1738632;81;21414;-74
2021/05/05 06:22:22;;;;;;;10.68;5.20;;;;;;;12.13;63.79;98853.72;1738805;82;21559;-74
2021/05/05 06:24:49;;;;;;;9.15;4.67;;;;;;;12.23;63.22;98857.36;1738619;82;21213;-74
2021/05/05 06:27:16;;;;;;;7.00;5.05;;;;;;;12.31;63.13;98853.70;1738725;82;20971;-75
2021/05/05 06:29:44;;;;;;;5.87;3.70;;;;;;;12.42;63.32;98849.92;1743954;81;21080;-74
2021/05/05 06:32:12;;;;;;;21.10;5.97;;;;;;;12.55;62.64;98852.32;1767512;81;21265;-73
2021/05/05 06:34:40;;;;;;;14.28;4.05;;;;;;;12.58;62.96;98850.03;1767440;81;21020;-74
2021/05/05 06:37:08;;;;;;;13.55;5.45;;;;;;;12.64;62.36;98858.28;1767537;80;20949;-75
2021/05/05 06:39:35;;;;;;;10.18;5.50;;;;;;;12.68;62.46;98854.48;1767507;81;21115;-75
2021/05/05 06:42:03;;;;;;;9.38;4.58;;;;;;;12.76;62.25;98858.23;1768477;80;21114;-73
2021/05/05 06:44:32;;;;;;;6.55;4.35;;;;;;;12.80;61.73;98849.51;1768429;81;21321;-73
2021/05/05 06:46:59;;;;;;;12.13;5.00;;;;;;;12.79;61.99;98856.97;1767495;81;21050;-73
2021/05/05 06:49:29;;;;;;;19.02;5.40;;;;;;;12.82;61.94;98861.78;1767544;81;20953;-73
2021/05/05 06:51:56;;;;;;;16.45;5.50;;;;;;;12.87;61.97;98854.66;1767718;80;21468;-74
2021/05/05 06:54:24;;;;;;;8.43;4.83;;;;;;;12.94;61.93;98863.72;1767572;81;21063;-74
2021/05/05 06:56:52;;;;;;;12.85;4.80;;;;;;;13.00;62.32;98873.34;1768414;81;21372;-75
2021/05/05 06:59:20;;;;;;;7.08;4.40;;;;;;;13.02;61.34;98861.41;1768103;80;21138;-75
2021/05/05 07:01:48;;;;;;;10.20;4.70;;;;;;;13.03;61.25;98864.96;1767700;81;21531;-73
2021/05/05 07:04:15;;;;;;;14.23;4.85;;;;;;;13.10;61.13;98862.42;1769393;81;21466;-72
2021/05/05 07:06:43;;;;;;;13.15;5.03;;;;;;;13.17;61.64;98860.70;1768568;81;21225;-73
2021/05/05 07:09:13;;;;;;;10.90;5.30;;;;;;;13.25;61.56;98869.18;1764105;80;21660;-74
2021/05/05 07:11:41;;;;;;;15.78;4.45;;;;;;;13.29;61.30;98860.41;1767205;80;21004;-74
2021/05/05 07:14:08;;;;;;;8.15;5.37;;;;;;;13.40;60.93;98847.73;1767610;81;21190;-74
2021/05/05 07:16:35;;;;;;;12.40;4.95;;;;;;;13.49;60.81;98840.91;1767226;81;21144;-76
2021/05/05 07:19:03;;;;;;;9.53;5.45;;;;;;;13.62;60.61;98835.34;1759762;81;21129;-75
2021/05/05 07:21:31;;;;;;;13.40;5.12;;;;;;;13.75;60.14;98832.74;1738371;82;21656;-75
2021/05/05 07:23:59;;;;;;;11.12;5.97;;;;;;;13.83;59.69;98833.95;1768317;80;21625;-75
2021/05/05 07:26:27;;;;;;;6.55;4.50;;;;;;;13.89;59.56;98841.36;1768847;80;21486;-73
2021/05/05 07:28:56;;;;;;;7.90;4.97;;;;;;;13.87;59.45;98845.05;1768891;81;21142;-73
2021/05/05 07:31:24;;;;;;;25.12;6.95;;;;;;;13.90;59.60;98837.45;1768894;81;21146;-75
2021/05/05 07:33:51;;;;;;;19.17;6.05;;;;;;;13.96;59.82;98825.57;1767761;81;21369;-77
2021/05/05 07:36:25;;;;;;;8.65;4.75;;;;;;;14.08;59.61;98824.11;1767163;81;21570;-74
2021/05/05 07:49:02;;;;;;;10.23;5.12;;;;;;;14.85;57.79;98832.06;1767243;81;21190;-70
2021/05/05 07:51:30;;;;;;;13.28;5.10;;;;;;;15.04;57.14;98825.73;1767221;80;21080;-71
2021/05/05 07:53:57;;;;;;;14.73;5.05;;;;;;;15.27;57.17;98829.97;1767200;81;21154;-73
2021/05/05 07:56:23;;;;;;;6.70;4.20;;;;;;;15.58;56.11;98831.80;1767298;81;21051;-72
2021/05/05 07:58:50;;;;;;;8.75;4.60;;;;;;;15.91;54.12;98845.04;1767194;81;21144;-71
2021/05/05 08:01:17;;;;;;;14.93;4.78;;;;;;;16.14;53.12;98822.31;1767124;80;21078;-69
2021/05/05 08:08:11;;;;;;;12.85;8.70;;;;;;;16.45;51.78;98828.72;1765125;81;21084;-73
2021/05/05 08:10:47;;;;;;;7.30;4.30;;;;;;;16.61;52.59;98829.95;1763849;80;21592;-73
2021/05/05 08:13:15;;;;;;;7.87;4.28;;;;;;;16.90;49.81;98820.88;1763251;81;21197;-72
2021/05/05 08:15:42;;;;;;;10.98;4.50;;;;;;;17.12;49.40;98817.22;1763706;81;21105;-73
2021/05/05 08:18:10;;;;;;;9.10;4.78;;;;;;;17.25;48.45;98822.53;1763882;81;21161;-73
2021/05/05 08:20:39;;;;;;;23.77;5.45;;;;;;;17.25;48.52;98819.16;1731323;81;21146;-73
2021/05/05 08:23:09;;;;;;;13.58;3.80;;;;;;;17.22;48.57;98805.25;1763921;81;20934;-74
2021/05/05 08:25:38;;;;;;;6.40;3.98;;;;;;;17.41;49.09;98804.47;1764425;80;22323;-75
2021/05/05 08:28:07;;;;;;;14.28;6.70;;;;;;;17.69;47.91;98804.61;1732583;81;21147;-74
2021/05/05 08:30:34;;;;;;;13.22;4.17;;;;;;;17.88;46.73;98804.99;1733286;81;21630;-74
2021/05/05 08:33:05;;;;;;;10.68;4.72;;;;;;;17.88;46.27;98798.05;1764631;81;21484;-74
2021/05/05 08:35:33;;;;;;;9.08;3.60;;;;;;;17.93;45.63;98789.34;1733023;81;21152;-74
2021/05/05 08:38:03;;;;;;;23.85;5.08;;;;;;;18.03;45.40;98799.75;1731766;81;21583;-72
2021/05/05 08:40:32;;;;;;;7.12;3.95;;;;;;;18.17;46.10;98792.94;1763790;81;20996;-72
2021/05/05 08:43:01;;;;;;;8.80;3.92;;;;;;;18.28;44.58;98796.59;1763795;81;20985;-76
2021/05/05 08:45:30;;;;;;;7.00;3.52;;;;;;;18.34;45.42;98798.42;1763740;81;21408;-73
2021/05/05 08:48:02;;;;;;;14.47;3.65;;;;;;;18.45;45.21;98788.98;1763780;81;21595;-72
2021/05/05 08:50:31;;;;;;;8.30;3.65;;;;;;;18.64;44.56;98780.97;1764724;81;21043;-74
2021/05/05 08:52:58;;;;;;;11.28;3.40;;;;;;;18.79;43.10;98802.71;1763760;81;21103;-74
2021/05/05 08:55:27;;;;;;;6.20;3.65;;;;;;;18.72;44.40;98779.83;1763898;81;21500;-75
2021/05/05 08:57:56;;;;;;;13.15;3.72;;;;;;;18.84;44.10;98777.91;1763668;81;21487;-72
2021/05/05 09:00:30;;;;;;;5.83;3.65;;;;;;;18.95;44.43;98779.56;1764526;80;21114;-72
2021/05/05 09:02:59;;;;;;;8.83;3.35;;;;;;;18.86;43.34;98777.73;1763671;81;21202;-74
2021/05/05 09:05:51;;;;;;;7.05;2.98;;;;;;;18.62;44.54;98784.73;1762032;81;21082;-71
2021/05/05 09:08:18;;;;;;;8.93;3.00;;;;;;;18.60;43.70;98788.49;1737423;81;21107;-72
2021/05/05 09:10:58;;;;;;;6.17;2.90;;;;;;;18.82;44.21;98792.20;1763623;81;20937;-73
2021/05/05 09:13:56;;;;;;;5.10;3.10;;;;;;;19.13;42.28;98792.93;1764141;81;21495;-71
2021/05/05 09:16:30;;;;;;;8.25;2.77;;;;;;;19.38;41.99;98774.14;1764125;81;22351;-73
2021/05/05 09:19:12;;;;;;;6.47;3.00;;;;;;;19.59;41.81;98778.41;1763964;81;20952;-72
2021/05/05 09:21:45;;;;;;;4.58;2.62;;;;;;;19.90;41.27;98770.47;1764428;81;21602;-77
2021/05/05 09:24:31;;;;;;;9.75;4.00;;;;;;;20.04;40.70;98763.52;1764058;81;20909;-79
2021/05/05 09:27:09;;;;;;;50.78;31.50;;;;;;;19.92;39.84;98764.71;1764142;81;21612;-82
2021/05/05 09:29:46;;;;;;;8.98;4.47;;;;;;;19.72;40.10;98766.27;1764028;81;22465;-72
2021/05/05 09:32:16;;;;;;;50.43;30.00;;;;;;;19.54;39.94;98757.91;1764094;81;21577;-70
2021/05/05 09:35:04;;;;;;;21.95;10.80;;;;;;;19.42;41.29;98758.25;1764179;81;21484;-69
2021/05/05 09:37:32;;;;;;;12.25;5.12;;;;;;;19.45;39.98;98761.64;1764112;81;21154;-71
2021/05/05 09:40:09;;;;;;;9.40;5.45;;;;;;;19.52;39.11;98747.77;1764699;81;21198;-76
2021/05/05 09:42:37;;;;;;;7.75;4.42;;;;;;;19.53;38.92;98763.28;1763728;81;21211;-72
2021/05/05 09:45:08;;;;;;;14.23;3.47;;;;;;;19.41;39.67;98752.48;1763948;81;20953;-74
2021/05/05 09:47:52;;;;;;;12.07;2.83;;;;;;;19.30;39.63;98761.39;1764298;81;20953;-70
2021/05/05 09:50:41;;;;;;;8.33;2.08;;;;;;;19.39;39.31;98752.88;1763966;81;21015;-71
2021/05/05 09:53:27;;;;;;;7.08;2.72;;;;;;;19.58;37.07;98748.98;1764145;81;21059;-72
2021/05/05 09:56:03;;;;;;;3.98;2.05;;;;;;;19.80;37.40;98751.17;1764061;81;21289;-69
2021/05/05 09:58:41;;;;;;;8.13;2.75;;;;;;;20.15;37.47;98732.88;1763935;81;21614;-82
2021/05/05 10:01:15;;;;;;;11.12;2.62;;;;;;;20.53;36.29;98740.99;1764048;81;20956;-83
2021/05/05 10:03:51;;;;;;;5.35;2.10;;;;;;;20.65;34.96;98732.20;1763999;81;21005;-71
2021/05/05 10:06:28;;;;;;;8.25;2.27;;;;;;;20.63;35.03;98737.38;1748656;81;21616;-79
2021/05/05 10:09:05;;;;;;;4.10;1.90;;;;;;;20.70;34.75;98733.19;1733547;82;21424;-73
2021/05/05 10:11:42;;;;;;;3.10;1.80;;;;;;;20.79;34.56;98736.95;1733718;82;21148;-74
2021/05/05 10:14:16;;;;;;;12.20;2.67;;;;;;;20.83;33.07;98731.52;1736254;80;21204;-75
2021/05/05 10:16:48;;;;;;;3.92;1.95;;;;;;;20.80;33.21;98742.72;1762544;79;21113;-72
2021/05/05 10:19:20;;;;;;;7.05;2.08;;;;;;;20.86;33.96;98729.92;1764089;80;21000;-71
2021/05/05 10:21:56;;;;;;;3.58;1.82;;;;;;;21.01;32.87;98726.67;1735398;82;21375;-71
2021/05/05 10:24:25;;;;;;;4.53;1.40;;;;;;;21.16;31.94;98714.84;1753585;81;21083;-72
2021/05/05 10:26:53;;;;;;;6.12;2.12;;;;;;;21.16;28.37;98733.58;1764102;81;21127;-73
2021/05/05 10:29:22;;;;;;;4.12;1.50;;;;;;;21.04;30.29;98732.03;1764160;81;21126;-71
2021/05/05 10:31:52;;;;;;;5.58;2.00;;;;;;;20.93;31.58;98720.92;1764133;81;21154;-68
2021/05/05 10:34:23;;;;;;;4.50;2.00;;;;;;;21.05;32.19;98721.07;1763898;81;21279;-68
2021/05/05 10:36:55;;;;;;;7.03;1.57;;;;;;;21.22;31.66;98709.66;1763668;80;21178;-68
2021/05/05 10:39:32;;;;;;;7.72;2.22;;;;;;;21.38;31.12;98701.56;1763750;81;21138;-68
2021/05/05 10:42:05;;;;;;;10.98;1.95;;;;;;;21.55;29.88;98697.86;1763622;81;21059;-68
2021/05/05 10:44:58;;;;;;;6.65;2.02;;;;;;;21.62;29.94;98714.57;1763600;81;21195;-66
2021/05/05 10:47:36;;;;;;;6.70;2.52;;;;;;;21.50;30.10;98709.47;1764075;80;21851;-67
2021/05/05 10:50:13;;;;;;;4.25;1.72;;;;;;;21.45;29.42;98697.94;1764325;81;21143;-67
2021/05/05 10:52:53;;;;;;;7.55;3.42;;;;;;;21.56;29.86;98693.07;1764123;81;20981;-67
2021/05/05 10:55:34;;;;;;;6.03;4.70;;;;;;;21.72;29.46;98700.34;1764111;81;21198;-66
2021/05/05 10:58:12;;;;;;;7.72;3.35;;;;;;;21.86;29.20;98683.47;1764208;81;21147;-67
2021/05/05 11:00:56;;;;;;;5.45;1.82;;;;;;;21.77;27.30;98698.50;1764208;81;21428;-67
2021/05/05 11:03:49;;;;;;;6.97;1.65;;;;;;;21.42;28.86;98702.34;1764073;81;20961;-68
2021/05/05 11:06:38;;;;;;;3.20;1.60;;;;;;;21.41;29.05;98686.19;1764080;80;21048;-67
2021/05/05 11:09:16;;;;;;;3.20;1.42;;;;;;;21.76;28.53;98677.36;1764151;81;21483;-69
2021/05/05 11:11:47;;;;;;;3.62;1.50;;;;;;;21.96;27.74;98682.55;1764418;80;21604;-68
2021/05/05 11:14:32;;;;;;;8.88;2.58;;;;;;;22.14;26.74;98690.02;1764756;81;21374;-68
2021/05/05 11:17:03;;;;;;;2.47;1.57;;;;;;;22.26;25.28;98677.71;1764151;80;21171;-68
2021/05/05 11:19:43;;;;;;;47.62;3.02;;;;;;;22.22;24.56;98685.34;1764605;80;21176;-69
2021/05/05 11:22:27;;;;;;;5.53;1.60;;;;;;;22.18;25.12;98685.19;1753463;80;21196;-69
2021/05/05 11:24:56;;;;;;;7.35;1.92;;;;;;;22.14;25.56;98683.82;1761381;81;21154;-70
2021/05/05 11:27:47;;;;;;;4.10;1.80;;;;;;;22.15;25.66;98677.63;1732686;81;21389;-68
2021/05/05 11:30:33;;;;;;;5.20;1.87;;;;;;;22.26;25.90;98668.53;1888971;76;22668;-68
2021/05/05 11:33:00;;;;;;;4.33;1.72;;;;;;;22.28;25.67;98674.50;1859937;77;20904;-69
2021/05/05 11:35:32;;;;;;;3.65;1.47;;;;;;;22.26;25.63;98688.89;1850502;77;20892;-72
2021/05/05 11:38:10;;;;;;;6.00;1.60;;;;;;;22.15;26.38;98672.83;1837588;77;20950;-71
2021/05/05 11:40:39;;;;;;;6.33;1.80;;;;;;;22.12;26.63;98670.86;1825607;78;21498;-72
2021/05/05 11:43:18;;;;;;;8.15;1.67;;;;;;;22.19;26.71;98676.98;1826855;78;20987;-71
2021/05/05 11:45:51;;;;;;;6.00;1.52;;;;;;;22.20;26.23;98681.37;1825426;78;21014;-72
2021/05/05 11:48:27;;;;;;;9.47;1.60;;;;;;;22.24;26.12;98666.75;1827315;78;21187;-70
2021/05/05 11:50:55;;;;;;;3.12;1.52;;;;;;;22.29;27.46;98664.30;1831785;76;21030;-71
2021/05/05 11:53:34;;;;;;;4.80;1.75;;;;;;;22.43;26.55;98652.78;1845594;77;21003;-70
2021/05/05 11:56:05;;;;;;;5.40;1.80;;;;;;;22.36;26.73;98662.83;1860694;77;20872;-71
2021/05/05 11:58:33;;;;;;;4.15;1.87;;;;;;;22.27;27.47;98668.12;1826814;77;21090;-71
2021/05/05 12:01:00;;;;;;;2.27;1.70;;;;;;;22.47;27.00;98654.93;1860394;77;21118;-71
2021/05/05 12:03:30;;;;;;;4.62;2.20;;;;;;;22.58;27.23;98640.98;1860578;77;20943;-72
2021/05/05 12:05:58;;;;;;;2.90;1.52;;;;;;;22.46;27.26;98643.55;1860651;77;20976;-71